Time;durP1;ratioP1;P1;durP2;ratioP2;P2;SDS_P1;SDS_P2;PMS_P1;PMS_P2;Temp;Humidity;BMP_temperature;BMP_pressure;BME280_temperature;BME280_humidity;BME280_pressure;Samples;Min_cycle;Max_cycle;Signal;HPM_P1;HPM_P2
2023/07/06 00:07:01;;;;;;;6.25;2.90;;;;;;;18.77;56.40;100139.47;30980379;28;97572;-68
2023/07/06 00:22:01;;;;;;;7.03;2.53;;;;;;;17.90;55.67;100148.38;30900126;28;101321;-72
2023/07/06 00:37:02;;;;;;;5.32;2.40;;;;;;;17.30;56.16;100151.47;30853190;28;97134;-74
2023/07/06 00:52:02;;;;;;;5.07;2.30;;;;;;;16.91;56.17;100167.59;30851298;28;97552;-68
2023/07/06 01:07:04;;;;;;;5.80;2.55;;;;;;;16.58;56.46;100168.50;30873197;28;98223;-68
2023/07/06 01:22:30;;;;;;;5.67;2.43;;;;;;;16.32;56.63;100180.09;30872753;28;96811;-71
2023/07/06 01:37:43;;;;;;;9.87;3.40;;;;;;;15.91;57.28;100173.94;30870256;28;97561;-69
2023/07/06 01:52:49;;;;;;;4.87;2.80;;;;;;;15.65;57.83;100172.00;30888381;28;96660;-70
2023/07/06 02:07:50;;;;;;;5.17;2.80;;;;;;;15.52;58.83;100181.66;30990240;28;97290;-68
2023/07/06 02:22:50;;;;;;;5.88;2.80;;;;;;;15.47;58.70;100192.19;30990401;28;96740;-68
2023/07/06 02:37:51;;;;;;;5.60;3.13;;;;;;;15.34;58.56;100201.03;30988226;28;109322;-70
2023/07/06 02:52:52;;;;;;;8.03;3.63;;;;;;;15.04;59.35;100224.66;30987894;28;96650;-70
2023/07/06 03:07:52;;;;;;;8.88;2.80;;;;;;;14.96;60.42;100220.28;30985253;28;97178;-69
2023/07/06 03:22:54;;;;;;;6.95;2.97;;;;;;;15.33;59.35;100218.16;30918668;28;96804;-74
2023/07/06 03:37:55;;;;;;;6.20;2.70;;;;;;;15.54;59.17;100230.63;30857215;28;96780;-71
2023/07/06 03:52:55;;;;;;;5.45;2.63;;;;;;;15.63;59.10;100258.13;30855296;28;96635;-70
2023/07/06 04:07:56;;;;;;;8.13;3.10;;;;;;;16.02;58.35;100274.56;30889092;28;112895;-68
2023/07/06 04:22:58;;;;;;;9.52;3.03;;;;;;;16.30;57.79;100287.03;30976732;28;96853;-73
2023/07/06 04:38:01;;;;;;;;;;;;;;;16.45;57.93;100297.59;30976312;28;97296;-69
2023/07/06 04:53:02;;;;;;;9.77;3.10;;;;;;;16.65;57.04;100309.16;30975946;28;96692;-70
2023/07/06 05:08:03;;;;;;;8.80;2.90;;;;;;;16.92;56.54;100328.00;30848491;28;103430;-70
2023/07/06 05:23:05;;;;;;;6.93;2.30;;;;;;;17.17;56.13;100349.72;30829624;28;98303;-68
2023/07/06 05:38:10;;;;;;;8.47;2.50;;;;;;;17.45;55.32;100343.22;30831633;28;97960;-71
2023/07/06 05:53:10;;;;;;;5.47;3.00;;;;;;;17.79;54.67;100357.38;30854102;28;96832;-69
2023/07/06 06:08:10;;;;;;;8.13;3.22;;;;;;;18.46;53.40;100348.13;30847012;28;105410;-68
2023/07/06 06:23:11;;;;;;;8.95;2.95;;;;;;;19.33;51.90;100352.78;30851890;28;98718;-70
2023/07/06 06:38:13;;;;;;;6.82;3.45;;;;;;;20.16;49.28;100367.63;30854978;28;97528;-67
2023/07/06 06:53:14;;;;;;;5.83;2.73;;;;;;;20.25;47.73;100376.22;30851629;28;97921;-69
2023/07/06 07:08:14;;;;;;;8.47;2.67;;;;;;;21.11;47.02;100390.28;30836370;28;99095;-70
2023/07/06 07:23:14;;;;;;;5.07;2.13;;;;;;;22.40;44.14;100384.00;30842317;28;107689;-72
2023/07/06 07:38:16;;;;;;;8.65;2.78;;;;;;;23.52;40.95;100372.44;30837104;28;97174;-67
2023/07/06 07:53:18;;;;;;;6.07;2.67;;;;;;;24.50;37.99;100379.81;30833413;28;97485;-67
2023/07/06 08:08:18;;;;;;;6.10;2.13;;;;;;;25.34;35.50;100381.03;30833119;28;97367;-68
2023/07/06 08:23:20;;;;;;;5.60;2.10;;;;;;;25.90;34.20;100365.97;30835213;28;99196;-65
2023/07/06 08:38:21;;;;;;;5.60;1.83;;;;;;;26.69;32.81;100377.56;30833010;28;98862;-71
2023/07/06 08:53:27;;;;;;;5.45;2.00;;;;;;;27.51;30.89;100373.13;30848478;28;104908;-69
2023/07/06 09:08:28;;;;;;;5.70;1.77;;;;;;;27.46;28.65;100376.69;30854955;28;97096;-69
2023/07/06 09:23:31;;;;;;;4.20;1.60;;;;;;;28.37;28.29;100375.69;30856889;28;97264;-74
2023/07/06 09:38:43;;;;;;;3.13;1.80;;;;;;;29.73;26.29;100379.59;30854639;28;97724;-68
2023/07/06 09:53:48;;;;;;;3.57;1.90;;;;;;;29.80;26.57;100378.13;30846558;28;96995;-68
2023/07/06 10:09:03;;;;;;;3.40;1.90;;;;;;;29.73;25.50;100385.09;30846244;28;98027;-69
2023/07/06 10:24:03;;;;;;;5.87;1.70;;;;;;;28.81;25.88;100390.44;30834882;28;98460;-70
2023/07/06 10:39:32;;;;;;;3.97;1.83;;;;;;;30.60;24.07;100381.09;30837640;28;97638;-68
2023/07/06 10:54:33;;;;;;;5.27;1.63;;;;;;;31.02;23.06;100381.22;30843594;28;97170;-67
2023/07/06 11:09:47;;;;;;;3.35;1.88;;;;;;;30.52;24.20;100382.63;30849623;28;98597;-66
2023/07/06 11:24:49;;;;;;;3.70;1.60;;;;;;;30.76;23.64;100384.41;30839541;28;97566;-68
2023/07/06 11:40:06;;;;;;;4.40;1.80;;;;;;;31.59;22.63;100375.50;30837183;28;96894;-67
2023/07/06 11:55:29;;;;;;;4.40;1.43;;;;;;;32.67;21.05;100384.03;30847682;28;97566;-71
2023/07/06 12:10:34;;;;;;;4.37;1.30;;;;;;;30.51;22.00;100375.50;30834139;28;97364;-66
2023/07/06 12:25:34;;;;;;;3.37;1.30;;;;;;;32.05;21.01;100355.19;30830055;28;98467;-67
2023/07/06 12:40:35;;;;;;;3.22;1.17;;;;;;;31.61;20.56;100344.91;30838110;28;115154;-67
2023/07/06 12:55:36;;;;;;;3.58;1.58;;;;;;;30.91;20.86;100346.75;30842682;28;96733;-66
2023/07/06 13:10:37;;;;;;;2.10;1.20;;;;;;;30.25;21.24;100333.84;30836262;28;97666;-68
2023/07/06 13:25:44;;;;;;;4.30;1.33;;;;;;;30.41;22.14;100333.59;30837558;28;97046;-68
2023/07/06 13:40:48;;;;;;;4.87;1.77;;;;;;;28.10;24.29;100332.31;30834702;28;98527;-67
2023/07/06 13:55:52;;;;;;;5.17;1.50;;;;;;;27.31;25.67;100328.31;30829796;28;96870;-68
2023/07/06 14:10:53;;;;;;;3.57;1.67;;;;;;;26.52;26.98;100327.88;30862617;28;96781;-69
2023/07/06 14:25:54;;;;;;;3.00;1.40;;;;;;;26.37;27.46;100330.59;30864579;28;97417;-69
2023/07/06 14:40:55;;;;;;;3.73;1.33;;;;;;;26.23;26.46;100336.59;30871736;28;96977;-68
2023/07/06 14:55:55;;;;;;;3.38;1.38;;;;;;;26.09;26.91;100327.28;30731263;28;97504;-68
2023/07/06 15:10:55;;;;;;;5.18;1.33;;;;;;;25.97;27.03;100325.63;30860022;28;106294;-67
2023/07/06 15:25:56;;;;;;;3.90;1.65;;;;;;;26.80;26.85;100328.41;30956337;28;96764;-69
2023/07/06 15:40:56;;;;;;;3.80;1.38;;;;;;;26.53;27.33;100318.56;30881277;28;102531;-68
2023/07/06 15:56:00;;;;;;;3.60;1.43;;;;;;;27.38;27.04;100314.38;30855193;28;97260;-68
2023/07/06 16:11:01;;;;;;;3.77;1.40;;;;;;;26.97;27.47;100314.44;30851930;28;96771;-68
2023/07/06 16:26:10;;;;;;;2.60;1.20;;;;;;;26.72;27.71;100326.25;30848165;28;97007;-68
2023/07/06 16:41:11;;;;;;;3.53;1.30;;;;;;;27.18;27.17;100326.16;30851303;28;96696;-68
2023/07/06 16:56:12;;;;;;;4.07;1.40;;;;;;;27.40;27.21;100333.22;30851984;28;97396;-67
2023/07/06 17:11:12;;;;;;;4.47;1.33;;;;;;;26.86;27.96;100338.25;30849673;28;96663;-67
2023/07/06 17:26:12;;;;;;;4.57;1.70;;;;;;;26.34;28.45;100340.97;30840634;28;96803;-66
2023/07/06 17:41:14;;;;;;;2.63;1.42;;;;;;;25.84;28.67;100347.94;30733955;28;96924;-65
2023/07/06 17:56:14;;;;;;;3.30;1.80;;;;;;;25.44;29.18;100350.25;30800609;28;97329;-65
2023/07/06 18:11:14;;;;;;;6.93;1.67;;;;;;;25.07;29.62;100359.31;30856153;28;116442;-66
2023/07/06 18:26:15;;;;;;;4.95;1.48;;;;;;;24.33;30.56;100378.03;30853861;28;97467;-67
2023/07/06 18:41:15;;;;;;;4.15;1.63;;;;;;;23.74;31.63;100386.03;30850248;28;99821;-67
2023/07/06 18:56:15;;;;;;;5.00;1.67;;;;;;;23.05;33.25;100395.41;30848642;28;97550;-68
2023/07/06 19:11:16;;;;;;;7.75;2.03;;;;;;;22.32;35.05;100415.03;30825846;28;97852;-67
2023/07/06 19:26:17;;;;;;;3.77;2.00;;;;;;;21.59;37.25;100439.09;30851414;28;96813;-68
2023/07/06 19:41:17;;;;;;;5.37;2.43;;;;;;;21.02;38.87;100461.28;30849882;28;97028;-68
2023/07/06 19:56:23;;;;;;;11.33;3.37;;;;;;;20.44;40.87;100467.09;30842264;28;96754;-68
2023/07/06 20:11:23;;;;;;;6.47;2.90;;;;;;;19.92;42.69;100481.03;30797466;28;97239;-68
2023/07/06 20:26:24;;;;;;;6.40;2.90;;;;;;;19.48;44.16;100491.03;30742173;28;97652;-68
2023/07/06 20:41:27;;;;;;;6.67;3.07;;;;;;;19.15;45.74;100502.09;30800287;28;97252;-69
2023/07/06 20:56:28;;;;;;;7.93;3.17;;;;;;;18.82;47.44;100514.78;30829322;28;97993;-68
2023/07/06 21:11:28;;;;;;;9.13;4.53;;;;;;;19.31;48.51;100519.66;30855867;28;109875;-69
2023/07/06 21:26:30;;;;;;;12.13;5.65;;;;;;;19.50;48.49;100532.16;30871796;28;96756;-67
2023/07/06 21:41:31;;;;;;;10.93;5.00;;;;;;;19.44;49.04;100546.56;30870417;28;97267;-70
2023/07/06 21:56:31;;;;;;;16.05;7.20;;;;;;;19.37;50.00;100548.47;30869273;28;107172;-76
2023/07/06 22:11:32;;;;;;;12.40;5.82;;;;;;;19.33;50.55;100558.06;30867945;28;97300;-68
2023/07/06 22:26:32;;;;;;;12.73;5.43;;;;;;;19.24;51.12;100554.81;30866453;28;96786;-70
2023/07/06 22:41:33;;;;;;;9.98;4.70;;;;;;;18.90;52.04;100567.69;30864890;28;97194;-69
2023/07/06 22:56:33;;;;;;;7.65;3.60;;;;;;;18.28;52.97;100573.53;30864033;28;99020;-68
2023/07/06 23:11:34;;;;;;;7.82;4.55;;;;;;;17.88;53.29;100579.78;30862447;28;96989;-69
2023/07/06 23:26:35;;;;;;;11.60;4.90;;;;;;;17.26;54.05;100595.28;30860468;28;96879;-75
2023/07/06 23:41:37;;;;;;;7.73;5.17;;;;;;;16.48;55.19;100596.44;30858619;28;96907;-67
2023/07/06 23:56:37;;;;;;;8.80;4.50;;;;;;;16.11;56.29;100598.53;30857876;28;96991;-69
